sensor_id;sensor_type;location;lat;lon;timestamp;pressure;altitude;pressure_sealevel;temperature;humidity
26978;BME280;56314;48.088;11.642;2023-05-01T00:00:49;95291.56;;;9.41;67.76
26978;BME280;56314;48.088;11.642;2023-05-01T00:03:15;95300.72;;;9.35;67.93
26978;BME280;56314;48.088;11.642;2023-05-01T00:05:42;95299.03;;;9.34;67.53
26978;BME280;56314;48.088;11.642;2023-05-01T00:08:08;95295.47;;;9.35;68.18
26978;BME280;56314;48.088;11.642;2023-05-01T00:10:34;95289.97;;;9.38;68.48
26978;BME280;56314;48.088;11.642;2023-05-01T00:13:00;95284.03;;;9.36;69.37
26978;BME280;56314;48.088;11.642;2023-05-01T00:15:25;95288.34;;;9.37;68.71
26978;BME280;56314;48.088;11.642;2023-05-01T00:17:52;95279.75;;;9.35;68.48
26978;BME280;56314;48.088;11.642;2023-05-01T00:20:18;95269.72;;;9.29;68.29
26978;BME280;56314;48.088;11.642;2023-05-01T00:22:43;95270.63;;;9.17;68.79
26978;BME280;56314;48.088;11.642;2023-05-01T00:25:08;95272.41;;;9.16;68.70
26978;BME280;56314;48.088;11.642;2023-05-01T00:27:34;95268.59;;;9.20;68.31
26978;BME280;56314;48.088;11.642;2023-05-01T00:30:00;95264.56;;;9.16;69.16
26978;BME280;56314;48.088;11.642;2023-05-01T00:32:25;95261.34;;;9.13;68.88
26978;BME280;56314;48.088;11.642;2023-05-01T00:34:51;95260.59;;;9.11;68.44
26978;BME280;56314;48.088;11.642;2023-05-01T00:37:16;95262.50;;;9.08;67.90
26978;BME280;56314;48.088;11.642;2023-05-01T00:39:42;95262.38;;;9.10;68.28
26978;BME280;56314;48.088;11.642;2023-05-01T00:42:07;95254.41;;;9.12;68.93
26978;BME280;56314;48.088;11.642;2023-05-01T00:44:33;95256.31;;;9.09;68.02
26978;BME280;56314;48.088;11.642;2023-05-01T00:46:58;95252.00;;;9.08;68.53
26978;BME280;56314;48.088;11.642;2023-05-01T00:49:26;95248.63;;;9.19;69.46
26978;BME280;56314;48.088;11.642;2023-05-01T00:51:51;95244.16;;;9.08;69.06
26978;BME280;56314;48.088;11.642;2023-05-01T00:54:18;95249.41;;;9.08;69.81
26978;BME280;56314;48.088;11.642;2023-05-01T00:56:48;95242.81;;;9.03;69.41
26978;BME280;56314;48.088;11.642;2023-05-01T00:59:13;95248.19;;;9.01;70.30
26978;BME280;56314;48.088;11.642;2023-05-01T01:01:40;95245.88;;;8.97;71.29
26978;BME280;56314;48.088;11.642;2023-05-01T01:04:06;95249.34;;;8.97;70.72
26978;BME280;56314;48.088;11.642;2023-05-01T01:09:37;95240.50;;;8.87;71.60
26978;BME280;56314;48.088;11.642;2023-05-01T01:22:22;95231.69;;;8.63;72.74
26978;BME280;56314;48.088;11.642;2023-05-01T01:30:34;95227.50;;;8.61;74.44
26978;BME280;56314;48.088;11.642;2023-05-01T01:36:05;95231.00;;;8.49;75.74
26978;BME280;56314;48.088;11.642;2023-05-01T01:38:40;95224.59;;;8.40;75.58
26978;BME280;56314;48.088;11.642;2023-05-01T01:41:25;95234.25;;;8.39;76.17
26978;BME280;56314;48.088;11.642;2023-05-01T01:44:00;95231.31;;;8.44;76.69
26978;BME280;56314;48.088;11.642;2023-05-01T01:46:27;95225.16;;;8.32;76.12
26978;BME280;56314;48.088;11.642;2023-05-01T01:48:54;95228.00;;;8.29;76.33
26978;BME280;56314;48.088;11.642;2023-05-01T01:51:23;95218.16;;;8.32;76.37
26978;BME280;56314;48.088;11.642;2023-05-01T01:53:52;95216.38;;;8.33;77.03
26978;BME280;56314;48.088;11.642;2023-05-01T01:56:20;95212.00;;;8.21;77.44
26978;BME280;56314;48.088;11.642;2023-05-01T01:58:47;95211.06;;;8.22;77.47
26978;BME280;56314;48.088;11.642;2023-05-01T02:01:14;95210.78;;;8.13;77.59
26978;BME280;56314;48.088;11.642;2023-05-01T02:03:42;95207.13;;;8.03;77.92
26978;BME280;56314;48.088;11.642;2023-05-01T02:06:09;95210.16;;;8.10;78.72
26978;BME280;56314;48.088;11.642;2023-05-01T02:08:36;95204.72;;;8.00;78.47
26978;BME280;56314;48.088;11.642;2023-05-01T02:11:03;95204.44;;;7.92;79.13
26978;BME280;56314;48.088;11.642;2023-05-01T02:13:30;95202.22;;;7.98;79.72
26978;BME280;56314;48.088;11.642;2023-05-01T02:16:01;95203.25;;;7.96;79.42
26978;BME280;56314;48.088;11.642;2023-05-01T02:18:28;95196.59;;;7.92;79.18
26978;BME280;56314;48.088;11.642;2023-05-01T02:20:56;95197.44;;;7.79;79.95
26978;BME280;56314;48.088;11.642;2023-05-01T02:23:23;95189.38;;;7.82;80.61
26978;BME280;56314;48.088;11.642;2023-05-01T02:25:50;95192.63;;;7.86;80.49
26978;BME280;56314;48.088;11.642;2023-05-01T02:28:21;95192.31;;;7.78;81.26
26978;BME280;56314;48.088;11.642;2023-05-01T02:30:47;95191.81;;;7.73;79.96
26978;BME280;56314;48.088;11.642;2023-05-01T02:33:12;95198.19;;;7.81;79.91
26978;BME280;56314;48.088;11.642;2023-05-01T02:35:42;95185.41;;;7.77;79.77
26978;BME280;56314;48.088;11.642;2023-05-01T02:38:09;95188.53;;;7.82;78.71
26978;BME280;56314;48.088;11.642;2023-05-01T02:40:37;95178.72;;;7.85;77.92
26978;BME280;56314;48.088;11.642;2023-05-01T02:43:05;95163.75;;;7.88;78.09
26978;BME280;56314;48.088;11.642;2023-05-01T02:45:36;95169.81;;;7.88;78.14
26978;BME280;56314;48.088;11.642;2023-05-01T02:48:04;95166.38;;;7.88;78.13
26978;BME280;56314;48.088;11.642;2023-05-01T02:50:31;95165.22;;;7.79;78.32
26978;BME280;56314;48.088;11.642;2023-05-01T02:52:58;95160.53;;;7.71;77.92
26978;BME280;56314;48.088;11.642;2023-05-01T02:55:24;95163.88;;;7.86;78.96
26978;BME280;56314;48.088;11.642;2023-05-01T02:57:50;95168.97;;;7.88;78.59
26978;BME280;56314;48.088;11.642;2023-05-01T03:00:16;95164.19;;;7.81;78.25
26978;BME280;56314;48.088;11.642;2023-05-01T03:02:42;95161.78;;;7.78;79.10
26978;BME280;56314;48.088;11.642;2023-05-01T03:05:07;95158.75;;;7.72;78.88
26978;BME280;56314;48.088;11.642;2023-05-01T03:07:33;95160.75;;;7.68;79.19
26978;BME280;56314;48.088;11.642;2023-05-01T03:10:04;95164.63;;;7.62;80.15
26978;BME280;56314;48.088;11.642;2023-05-01T03:12:30;95166.41;;;7.62;78.81
26978;BME280;56314;48.088;11.642;2023-05-01T03:14:55;95161.38;;;7.59;77.88
26978;BME280;56314;48.088;11.642;2023-05-01T03:17:21;95159.81;;;7.56;77.05
26978;BME280;56314;48.088;11.642;2023-05-01T03:19:46;95157.22;;;7.56;77.46
26978;BME280;56314;48.088;11.642;2023-05-01T03:22:13;95147.91;;;7.65;77.60
26978;BME280;56314;48.088;11.642;2023-05-01T03:24:38;95149.66;;;7.64;76.50
26978;BME280;56314;48.088;11.642;2023-05-01T03:27:03;95158.88;;;7.57;76.75
26978;BME280;56314;48.088;11.642;2023-05-01T03:29:29;95157.81;;;7.60;78.88
26978;BME280;56314;48.088;11.642;2023-05-01T03:31:55;95156.16;;;7.59;78.61
26978;BME280;56314;48.088;11.642;2023-05-01T03:34:21;95161.28;;;7.60;79.49
26978;BME280;56314;48.088;11.642;2023-05-01T03:36:47;95154.06;;;7.64;79.92
26978;BME280;56314;48.088;11.642;2023-05-01T03:39:12;95157.09;;;7.70;79.24
26978;BME280;56314;48.088;11.642;2023-05-01T03:41:38;95154.03;;;7.77;78.70
26978;BME280;56314;48.088;11.642;2023-05-01T03:44:03;95150.63;;;7.63;79.53
26978;BME280;56314;48.088;11.642;2023-05-01T03:46:29;95155.22;;;7.60;80.13
26978;BME280;56314;48.088;11.642;2023-05-01T03:48:54;95153.25;;;7.37;80.93
26978;BME280;56314;48.088;11.642;2023-05-01T03:51:19;95158.47;;;7.37;81.97
26978;BME280;56314;48.088;11.642;2023-05-01T03:53:45;95154.50;;;7.32;81.22
26978;BME280;56314;48.088;11.642;2023-05-01T03:56:10;95152.59;;;7.34;82.04
26978;BME280;56314;48.088;11.642;2023-05-01T03:58:35;95151.59;;;7.36;82.70
26978;BME280;56314;48.088;11.642;2023-05-01T04:01:01;95145.75;;;7.33;82.97
26978;BME280;56314;48.088;11.642;2023-05-01T04:03:27;95143.22;;;7.31;83.10
26978;BME280;56314;48.088;11.642;2023-05-01T04:05:52;95137.56;;;7.24;83.57
26978;BME280;56314;48.088;11.642;2023-05-01T04:08:18;95144.59;;;7.24;83.54
26978;BME280;56314;48.088;11.642;2023-05-01T04:10:43;95145.31;;;7.13;84.62
26978;BME280;56314;48.088;11.642;2023-05-01T04:13:09;95144.25;;;7.16;84.35
26978;BME280;56314;48.088;11.642;2023-05-01T04:15:36;95144.59;;;7.24;84.30
26978;BME280;56314;48.088;11.642;2023-05-01T04:18:02;95145.91;;;7.17;84.10
26978;BME280;56314;48.088;11.642;2023-05-01T04:20:28;95146.03;;;7.15;85.41
26978;BME280;56314;48.088;11.642;2023-05-01T04:22:53;95148.34;;;7.20;85.76
26978;BME280;56314;48.088;11.642;2023-05-01T04:25:19;95151.38;;;7.27;84.81
26978;BME280;56314;48.088;11.642;2023-05-01T04:27:44;95143.34;;;7.30;85.14
26978;BME280;56314;48.088;11.642;2023-05-01T04:30:10;95142.59;;;7.28;85.28
26978;BME280;56314;48.088;11.642;2023-05-01T04:32:35;95153.88;;;7.41;85.04
26978;BME280;56314;48.088;11.642;2023-05-01T04:35:01;95144.16;;;7.30;84.83
26978;BME280;56314;48.088;11.642;2023-05-01T04:37:30;95144.56;;;7.37;84.48
26978;BME280;56314;48.088;11.642;2023-05-01T04:39:55;95145.59;;;7.47;84.51
26978;BME280;56314;48.088;11.642;2023-05-01T04:42:21;95135.56;;;7.54;84.69
26978;BME280;56314;48.088;11.642;2023-05-01T04:44:46;95141.00;;;7.64;83.88
26978;BME280;56314;48.088;11.642;2023-05-01T04:47:12;95139.31;;;7.76;82.89
26978;BME280;56314;48.088;11.642;2023-05-01T04:49:37;95138.91;;;7.69;82.22
26978;BME280;56314;48.088;11.642;2023-05-01T04:52:03;95138.69;;;7.72;82.23
26978;BME280;56314;48.088;11.642;2023-05-01T04:54:28;95143.38;;;7.80;81.50
26978;BME280;56314;48.088;11.642;2023-05-01T04:56:53;95138.56;;;7.86;80.31
26978;BME280;56314;48.088;11.642;2023-05-01T04:59:19;95139.34;;;8.00;79.08
26978;BME280;56314;48.088;11.642;2023-05-01T05:01:44;95130.13;;;8.07;79.41
26978;BME280;56314;48.088;11.642;2023-05-01T05:04:09;95138.47;;;8.12;79.59
26978;BME280;56314;48.088;11.642;2023-05-01T05:06:35;95134.78;;;8.28;78.86
26978;BME280;56314;48.088;11.642;2023-05-01T05:09:00;95138.28;;;8.40;77.74
26978;BME280;56314;48.088;11.642;2023-05-01T05:11:26;95138.47;;;8.50;77.38
26978;BME280;56314;48.088;11.642;2023-05-01T05:13:51;95136.59;;;8.52;76.32
26978;BME280;56314;48.088;11.642;2023-05-01T05:16:16;95141.00;;;8.62;76.05
26978;BME280;56314;48.088;11.642;2023-05-01T05:18:42;95134.88;;;8.75;74.56
26978;BME280;56314;48.088;11.642;2023-05-01T05:21:07;95137.09;;;8.92;74.61
26978;BME280;56314;48.088;11.642;2023-05-01T05:23:33;95134.72;;;9.01;73.33
26978;BME280;56314;48.088;11.642;2023-05-01T05:25:58;95133.91;;;9.12;71.45
26978;BME280;56314;48.088;11.642;2023-05-01T05:28:28;95143.94;;;9.29;71.51
26978;BME280;56314;48.088;11.642;2023-05-01T05:30:54;95137.88;;;9.40;69.24
26978;BME280;56314;48.088;11.642;2023-05-01T05:33:20;95141.25;;;9.65;69.51
26978;BME280;56314;48.088;11.642;2023-05-01T05:35:47;95145.38;;;9.90;66.72
26978;BME280;56314;48.088;11.642;2023-05-01T05:38:13;95143.72;;;10.00;66.60
26978;BME280;56314;48.088;11.642;2023-05-01T05:40:39;95145.94;;;10.28;65.41
26978;BME280;56314;48.088;11.642;2023-05-01T05:43:05;95146.88;;;10.50;63.84
26978;BME280;56314;48.088;11.642;2023-05-01T05:45:33;95140.16;;;10.57;63.55
26978;BME280;56314;48.088;11.642;2023-05-01T05:47:59;95148.00;;;10.68;63.35
26978;BME280;56314;48.088;11.642;2023-05-01T05:50:24;95146.28;;;10.78;62.91
26978;BME280;56314;48.088;11.642;2023-05-01T05:52:50;95151.47;;;10.90;62.75
26978;BME280;56314;48.088;11.642;2023-05-01T05:55:15;95146.31;;;11.00;62.74
26978;BME280;56314;48.088;11.642;2023-05-01T05:57:41;95150.31;;;10.83;64.39
26978;BME280;56314;48.088;11.642;2023-05-01T06:00:07;95145.00;;;10.73;63.05
26978;BME280;56314;48.088;11.642;2023-05-01T06:02:34;95150.13;;;10.74;64.04
26978;BME280;56314;48.088;11.642;2023-05-01T06:04:59;95149.50;;;10.50;62.94
26978;BME280;56314;48.088;11.642;2023-05-01T06:07:25;95149.53;;;10.38;63.62
26978;BME280;56314;48.088;11.642;2023-05-01T06:09:50;95144.88;;;10.30;65.21
26978;BME280;56314;48.088;11.642;2023-05-01T06:12:16;95145.94;;;10.28;64.88
26978;BME280;56314;48.088;11.642;2023-05-01T06:14:41;95148.84;;;10.13;64.55
26978;BME280;56314;48.088;11.642;2023-05-01T06:17:07;95146.69;;;9.96;65.63
26978;BME280;56314;48.088;11.642;2023-05-01T06:19:34;95148.59;;;9.94;66.15
26978;BME280;56314;48.088;11.642;2023-05-01T06:22:00;95153.41;;;9.89;67.13
26978;BME280;56314;48.088;11.642;2023-05-01T06:24:25;95147.06;;;9.91;66.41
26978;BME280;56314;48.088;11.642;2023-05-01T06:26:51;95145.03;;;9.95;67.05
26978;BME280;56314;48.088;11.642;2023-05-01T06:29:17;95145.63;;;9.98;66.36
26978;BME280;56314;48.088;11.642;2023-05-01T06:31:42;95149.56;;;10.04;66.02
26978;BME280;56314;48.088;11.642;2023-05-01T06:34:08;95145.00;;;10.06;66.21
26978;BME280;56314;48.088;11.642;2023-05-01T06:36:33;95147.75;;;10.16;64.42
26978;BME280;56314;48.088;11.642;2023-05-01T06:38:58;95147.25;;;10.11;63.84
26978;BME280;56314;48.088;11.642;2023-05-01T06:41:23;95147.00;;;10.25;64.62
26978;BME280;56314;48.088;11.642;2023-05-01T06:43:49;95149.41;;;10.28;64.16
26978;BME280;56314;48.088;11.642;2023-05-01T06:46:15;95151.31;;;10.26;64.72
26978;BME280;56314;48.088;11.642;2023-05-01T06:48:40;95157.03;;;10.31;64.86
26978;BME280;56314;48.088;11.642;2023-05-01T06:51:06;95158.44;;;10.47;64.36
26978;BME280;56314;48.088;11.642;2023-05-01T06:53:31;95151.78;;;10.43;65.02
26978;BME280;56314;48.088;11.642;2023-05-01T06:55:56;95153.91;;;10.49;64.47
26978;BME280;56314;48.088;11.642;2023-05-01T06:58:22;95153.78;;;10.51;64.77
26978;BME280;56314;48.088;11.642;2023-05-01T07:00:47;95151.75;;;10.54;65.64
26978;BME280;56314;48.088;11.642;2023-05-01T07:03:15;95158.38;;;10.70;65.49
26978;BME280;56314;48.088;11.642;2023-05-01T07:05:41;95149.31;;;10.95;64.76
26978;BME280;56314;48.088;11.642;2023-05-01T07:08:06;95156.00;;;10.99;65.60
26978;BME280;56314;48.088;11.642;2023-05-01T07:10:32;95148.69;;;11.03;65.01
26978;BME280;56314;48.088;11.642;2023-05-01T07:12:58;95147.53;;;11.17;63.84
26978;BME280;56314;48.088;11.642;2023-05-01T07:15:24;95145.31;;;11.43;63.38
26978;BME280;56314;48.088;11.642;2023-05-01T07:17:49;95148.19;;;11.61;65.14
26978;BME280;56314;48.088;11.642;2023-05-01T07:20:15;95138.16;;;11.76;63.89
26978;BME280;56314;48.088;11.642;2023-05-01T07:22:41;95142.16;;;12.01;62.54
26978;BME280;56314;48.088;11.642;2023-05-01T07:25:07;95142.91;;;12.13;62.21
26978;BME280;56314;48.088;11.642;2023-05-01T07:27:32;95143.19;;;12.30;61.81
26978;BME280;56314;48.088;11.642;2023-05-01T07:29:59;95140.03;;;12.46;61.35
26978;BME280;56314;48.088;11.642;2023-05-01T07:32:25;95143.56;;;12.76;61.44
26978;BME280;56314;48.088;11.642;2023-05-01T07:34:51;95138.97;;;13.07;60.18
26978;BME280;56314;48.088;11.642;2023-05-01T07:37:19;95134.50;;;13.28;60.00
26978;BME280;56314;48.088;11.642;2023-05-01T07:39:44;95131.88;;;13.28;58.34
26978;BME280;56314;48.088;11.642;2023-05-01T07:42:10;95130.47;;;13.33;59.62
26978;BME280;56314;48.088;11.642;2023-05-01T07:44:35;95139.03;;;13.35;58.83
26978;BME280;56314;48.088;11.642;2023-05-01T07:47:04;95137.41;;;13.34;59.74
26978;BME280;56314;48.088;11.642;2023-05-01T07:49:36;95138.94;;;13.37;58.39
26978;BME280;56314;48.088;11.642;2023-05-01T07:52:03;95138.50;;;13.32;57.29
26978;BME280;56314;48.088;11.642;2023-05-01T07:54:29;95136.84;;;13.31;57.95
26978;BME280;56314;48.088;11.642;2023-05-01T07:56:55;95136.88;;;13.21;58.72
26978;BME280;56314;48.088;11.642;2023-05-01T07:59:20;95138.81;;;13.29;59.40
26978;BME280;56314;48.088;11.642;2023-05-01T08:01:46;95136.03;;;13.20;58.71
26978;BME280;56314;48.088;11.642;2023-05-01T08:04:11;95141.59;;;13.07;57.93
26978;BME280;56314;48.088;11.642;2023-05-01T08:06:36;95150.47;;;12.97;58.22
26978;BME280;56314;48.088;11.642;2023-05-01T08:09:02;95141.47;;;12.80;59.76
26978;BME280;56314;48.088;11.642;2023-05-01T08:11:27;95143.97;;;12.71;59.12
26978;BME280;56314;48.088;11.642;2023-05-01T08:13:54;95149.78;;;12.65;59.47
26978;BME280;56314;48.088;11.642;2023-05-01T08:16:19;95156.97;;;12.53;60.08
26978;BME280;56314;48.088;11.642;2023-05-01T08:18:44;95156.00;;;12.54;60.85
26978;BME280;56314;48.088;11.642;2023-05-01T08:21:10;95154.06;;;12.46;60.96
26978;BME280;56314;48.088;11.642;2023-05-01T08:23:36;95164.44;;;12.38;61.87
26978;BME280;56314;48.088;11.642;2023-05-01T08:26:02;95162.91;;;12.36;62.58
26978;BME280;56314;48.088;11.642;2023-05-01T08:28:27;95167.91;;;12.39;63.83
26978;BME280;56314;48.088;11.642;2023-05-01T08:30:53;95163.63;;;12.47;63.90
26978;BME280;56314;48.088;11.642;2023-05-01T08:33:18;95164.19;;;12.51;63.96
26978;BME280;56314;48.088;11.642;2023-05-01T08:35:43;95169.59;;;12.50;64.65
26978;BME280;56314;48.088;11.642;2023-05-01T08:38:09;95164.63;;;12.56;64.63
26978;BME280;56314;48.088;11.642;2023-05-01T08:40:36;95166.00;;;12.60;64.75
26978;BME280;56314;48.088;11.642;2023-05-01T08:43:04;95174.31;;;12.56;65.29
26978;BME280;56314;48.088;11.642;2023-05-01T08:45:32;95166.69;;;12.62;64.75
26978;BME280;56314;48.088;11.642;2023-05-01T08:48:05;95168.09;;;12.67;64.47
26978;BME280;56314;48.088;11.642;2023-05-01T08:50:33;95168.91;;;12.67;65.29
26978;BME280;56314;48.088;11.642;2023-05-01T08:53:00;95166.16;;;12.69;66.56
26978;BME280;56314;48.088;11.642;2023-05-01T08:55:27;95169.59;;;12.69;65.85
26978;BME280;56314;48.088;11.642;2023-05-01T08:57:54;95167.81;;;12.80;66.62
26978;BME280;56314;48.088;11.642;2023-05-01T09:00:22;95171.97;;;12.92;66.80
26978;BME280;56314;48.088;11.642;2023-05-01T09:02:49;95171.97;;;12.92;66.15
26978;BME280;56314;48.088;11.642;2023-05-01T09:05:16;95172.84;;;12.92;65.40
26978;BME280;56314;48.088;11.642;2023-05-01T09:07:42;95174.88;;;12.89;65.99
26978;BME280;56314;48.088;11.642;2023-05-01T09:10:11;95176.28;;;12.83;65.81
26978;BME280;56314;48.088;11.642;2023-05-01T09:12:37;95179.72;;;12.74;66.06
26978;BME280;56314;48.088;11.642;2023-05-01T09:15:03;95179.59;;;12.75;66.52
26978;BME280;56314;48.088;11.642;2023-05-01T09:17:31;95185.56;;;12.77;66.48
26978;BME280;56314;48.088;11.642;2023-05-01T09:19:57;95179.63;;;12.95;67.18
26978;BME280;56314;48.088;11.642;2023-05-01T09:22:23;95180.00;;;13.00;67.02
26978;BME280;56314;48.088;11.642;2023-05-01T09:24:48;95180.88;;;13.01;66.74
26978;BME280;56314;48.088;11.642;2023-05-01T09:27:14;95185.28;;;13.00;67.58
26978;BME280;56314;48.088;11.642;2023-05-01T09:29:44;95188.78;;;13.11;67.40
26978;BME280;56314;48.088;11.642;2023-05-01T09:34:49;95188.63;;;13.02;68.94
26978;BME280;56314;48.088;11.642;2023-05-01T09:37:31;95193.75;;;12.84;69.65
26978;BME280;56314;48.088;11.642;2023-05-01T09:42:34;95199.69;;;12.57;70.33
26978;BME280;56314;48.088;11.642;2023-05-01T09:45:02;95202.19;;;12.68;70.85
26978;BME280;56314;48.088;11.642;2023-05-01T09:47:28;95197.75;;;12.78;71.47
26978;BME280;56314;48.088;11.642;2023-05-01T09:49:55;95195.16;;;12.98;71.47
26978;BME280;56314;48.088;11.642;2023-05-01T09:52:28;95204.56;;;12.91;71.41
26978;BME280;56314;48.088;11.642;2023-05-01T09:55:12;95203.88;;;12.89;72.17
26978;BME280;56314;48.088;11.642;2023-05-01T09:57:38;95201.94;;;12.71;72.12
26978;BME280;56314;48.088;11.642;2023-05-01T10:00:05;95207.75;;;12.75;73.04
26978;BME280;56314;48.088;11.642;2023-05-01T10:02:33;95204.97;;;12.67;72.53
26978;BME280;56314;48.088;11.642;2023-05-01T10:04:58;95208.44;;;12.67;72.66
26978;BME280;56314;48.088;11.642;2023-05-01T10:07:24;95207.47;;;12.78;72.57
26978;BME280;56314;48.088;11.642;2023-05-01T10:09:50;95203.88;;;12.79;75.01
26978;BME280;56314;48.088;11.642;2023-05-01T10:12:37;95215.66;;;12.94;74.24
26978;BME280;56314;48.088;11.642;2023-05-01T10:15:03;95203.47;;;13.03;74.81
26978;BME280;56314;48.088;11.642;2023-05-01T10:17:30;95202.22;;;13.07;74.53
26978;BME280;56314;48.088;11.642;2023-05-01T10:19:55;95217.38;;;13.15;73.77
26978;BME280;56314;48.088;11.642;2023-05-01T10:22:21;95204.31;;;13.33;76.77
26978;BME280;56314;48.088;11.642;2023-05-01T10:24:46;95204.00;;;13.36;74.63
26978;BME280;56314;48.088;11.642;2023-05-01T10:27:14;95199.28;;;13.60;76.29
26978;BME280;56314;48.088;11.642;2023-05-01T10:29:45;95203.16;;;13.65;76.92
26978;BME280;56314;48.088;11.642;2023-05-01T10:32:12;95198.31;;;13.61;74.32
26978;BME280;56314;48.088;11.642;2023-05-01T10:34:42;95206.69;;;13.46;76.47
26978;BME280;56314;48.088;11.642;2023-05-01T10:37:17;95212.75;;;13.37;76.50
26978;BME280;56314;48.088;11.642;2023-05-01T10:39:43;95209.59;;;13.43;75.87
26978;BME280;56314;48.088;11.642;2023-05-01T10:42:09;95221.22;;;13.31;77.14
26978;BME280;56314;48.088;11.642;2023-05-01T10:44:39;95218.16;;;13.06;77.72
26978;BME280;56314;48.088;11.642;2023-05-01T10:50:12;95205.47;;;12.41;80.34
26978;BME280;56314;48.088;11.642;2023-05-01T10:55:40;95202.50;;;12.24;83.56
26978;BME280;56314;48.088;11.642;2023-05-01T10:58:12;95206.50;;;12.19;84.76
26978;BME280;56314;48.088;11.642;2023-05-01T11:00:39;95211.16;;;12.05;86.43
26978;BME280;56314;48.088;11.642;2023-05-01T11:03:34;95204.09;;;12.06;88.80
26978;BME280;56314;48.088;11.642;2023-05-01T11:08:29;95197.69;;;11.98;88.85
26978;BME280;56314;48.088;11.642;2023-05-01T11:10:59;95193.13;;;12.00;87.54
26978;BME280;56314;48.088;11.642;2023-05-01T11:14:07;95196.09;;;12.17;88.71
26978;BME280;56314;48.088;11.642;2023-05-01T11:21:35;95190.63;;;12.40;89.24
26978;BME280;56314;48.088;11.642;2023-05-01T11:24:02;95181.22;;;12.37;90.71
26978;BME280;56314;48.088;11.642;2023-05-01T11:26:28;95188.09;;;12.28;88.88
26978;BME280;56314;48.088;11.642;2023-05-01T11:28:56;95185.72;;;12.25;89.55
26978;BME280;56314;48.088;11.642;2023-05-01T11:31:22;95181.22;;;12.37;89.41
26978;BME280;56314;48.088;11.642;2023-05-01T11:33:47;95180.47;;;12.25;88.64
26978;BME280;56314;48.088;11.642;2023-05-01T11:36:13;95183.44;;;12.42;88.86
26978;BME280;56314;48.088;11.642;2023-05-01T11:38:49;95174.72;;;12.51;87.24
26978;BME280;56314;48.088;11.642;2023-05-01T11:41:18;95170.84;;;12.55;85.76
26978;BME280;56314;48.088;11.642;2023-05-01T11:44:03;95177.91;;;12.55;86.74
26978;BME280;56314;48.088;11.642;2023-05-01T11:46:32;95178.88;;;12.54;86.25
26978;BME280;56314;48.088;11.642;2023-05-01T11:49:01;95177.06;;;12.64;85.42
26978;BME280;56314;48.088;11.642;2023-05-01T11:51:28;95181.13;;;12.68;87.61
26978;BME280;56314;48.088;11.642;2023-05-01T11:54:11;95173.91;;;12.70;85.05
26978;BME280;56314;48.088;11.642;2023-05-01T11:56:40;95178.91;;;12.73;84.80
26978;BME280;56314;48.088;11.642;2023-05-01T11:59:09;95182.66;;;12.61;85.58
26978;BME280;56314;48.088;11.642;2023-05-01T12:01:38;95182.88;;;12.48;86.01
26978;BME280;56314;48.088;11.642;2023-05-01T12:04:04;95182.34;;;12.54;87.31
26978;BME280;56314;48.088;11.642;2023-05-01T12:06:43;95185.53;;;12.58;87.56
26978;BME280;56314;48.088;11.642;2023-05-01T12:09:29;95181.13;;;12.78;88.37
26978;BME280;56314;48.088;11.642;2023-05-01T12:11:56;95179.59;;;12.85;88.12
26978;BME280;56314;48.088;11.642;2023-05-01T12:14:23;95179.06;;;13.01;87.44
26978;BME280;56314;48.088;11.642;2023-05-01T12:16:49;95182.81;;;12.99;86.80
26978;BME280;56314;48.088;11.642;2023-05-01T12:19:15;95181.00;;;12.80;84.80
26978;BME280;56314;48.088;11.642;2023-05-01T12:21:41;95184.88;;;12.66;85.60
26978;BME280;56314;48.088;11.642;2023-05-01T12:24:17;95182.81;;;12.79;85.81
26978;BME280;56314;48.088;11.642;2023-05-01T12:26:43;95183.91;;;12.96;86.31
26978;BME280;56314;48.088;11.642;2023-05-01T12:29:09;95179.75;;;13.13;86.02
26978;BME280;56314;48.088;11.642;2023-05-01T12:31:36;95175.59;;;13.11;82.06
26978;BME280;56314;48.088;11.642;2023-05-01T12:36:29;95177.66;;;13.07;82.34
26978;BME280;56314;48.088;11.642;2023-05-01T12:38:59;95180.00;;;13.00;82.93
26978;BME280;56314;48.088;11.642;2023-05-01T12:42:04;95178.50;;;13.07;80.25
26978;BME280;56314;48.088;11.642;2023-05-01T12:44:30;95173.63;;;13.13;81.85
26978;BME280;56314;48.088;11.642;2023-05-01T12:46:58;95177.50;;;13.28;82.78
26978;BME280;56314;48.088;11.642;2023-05-01T12:49:25;95174.47;;;13.43;82.51
26978;BME280;56314;48.088;11.642;2023-05-01T12:51:55;95176.09;;;13.63;80.81
26978;BME280;56314;48.088;11.642;2023-05-01T12:54:23;95174.66;;;13.79;78.52
26978;BME280;56314;48.088;11.642;2023-05-01T12:56:50;95181.09;;;14.04;79.48
26978;BME280;56314;48.088;11.642;2023-05-01T12:59:22;95179.56;;;14.11;76.98
26978;BME280;56314;48.088;11.642;2023-05-01T13:02:16;95186.19;;;14.15;74.61
26978;BME280;56314;48.088;11.642;2023-05-01T13:04:42;95186.81;;;13.99;73.56
26978;BME280;56314;48.088;11.642;2023-05-01T13:07:11;95185.84;;;14.00;74.88
26978;BME280;56314;48.088;11.642;2023-05-01T13:09:38;95178.53;;;14.22;72.81
26978;BME280;56314;48.088;11.642;2023-05-01T13:12:05;95178.00;;;14.46;75.03
26978;BME280;56314;48.088;11.642;2023-05-01T13:14:38;95177.16;;;14.74;71.48
26978;BME280;56314;48.088;11.642;2023-05-01T13:17:08;95173.59;;;14.83;69.14
26978;BME280;56314;48.088;11.642;2023-05-01T13:19:34;95169.31;;;15.00;69.65
26978;BME280;56314;48.088;11.642;2023-05-01T13:22:00;95170.84;;;15.03;64.95
26978;BME280;56314;48.088;11.642;2023-05-01T13:24:42;95165.00;;;14.99;68.45
26978;BME280;56314;48.088;11.642;2023-05-01T13:27:10;95167.41;;;14.92;66.42
26978;BME280;56314;48.088;11.642;2023-05-01T13:29:37;95175.34;;;14.92;66.77
26978;BME280;56314;48.088;11.642;2023-05-01T13:32:03;95165.97;;;14.98;66.05
26978;BME280;56314;48.088;11.642;2023-05-01T13:34:31;95169.97;;;15.02;67.66
26978;BME280;56314;48.088;11.642;2023-05-01T13:36:58;95171.88;;;14.92;66.16
26978;BME280;56314;48.088;11.642;2023-05-01T13:39:26;95164.00;;;14.82;65.47